메인 페이지
METAR-TAF:

METAR-TAF

공항 :

아테네 국제공항

아테네, 그리스

위도: 37-56N, 경도: 023-56E, 고도: 94m

현재 날씨관측

예보는 37분 전, 23:16시(UTC)에 발표되었습니다.
북북동7kt
온도 11°C
습도 66%
기압 1020 hPa
시정 10km 이상
고도 2000ft 상공 구름 조금
고도 4000ft 상공 구름 많음

METAR: LGAV 012316Z 03007KT 9999 FEW020 BKN040 11/05 Q1020 NOSIG

시각: 01:53 (23:53 UTC)

예보

예보는 53분 전, 23:00시(UTC)에 발표되었습니다.
예보 대상 시간: 02일 00시부터 02일 24시까지 (UTC)
북동10kt
시정 10km 이상
고도 2000ft 상공 구름 조금
고도 4000ft 상공 구름 많음

TAF: LGAV 012300Z 0200/0224 04010KT 9999 FEW020 BKN040

4,000개 이상의 공항 관측 자료 및 예보 (METAR 및 TAF 보고).

지도상에서 검색 가능한 기상관측소가 노란 점과 빨간 점으로 표시되어 있습니다.

기상관측소 명을 보려면 표시 위로 마우스를 이동하세요.

날씨 관측과 예보를 보려면 클릭하세요.

지도 변경 : 확대하려면 엑스 표시가 있는 녹색 버튼, 축소하려면 빼기 표시가 있는 녹색 버튼, 다음 페이지의 지도를 보려면 녹색 화살표를 클릭하세요.


METAR-TAF: